Time;durP1;ratioP1;P1;durP2;ratioP2;P2;SDS_P1;SDS_P2;PMS_P1;PMS_P2;Temp;Humidity;BMP_temperature;BMP_pressure;BME280_temperature;BME280_humidity;BME280_pressure;Samples;Min_cycle;Max_cycle;Signal;HPM_P1;HPM_P2
2023/05/29 00:01:10;;;;;;;9.20;5.20;;;;;;;21.44;55.75;100268.72;5013466;28;20645;-63
2023/05/29 00:03:35;;;;;;;8.57;5.30;;;;;;;21.43;55.65;100264.19;5030402;28;20608;-63
2023/05/29 00:06:05;;;;;;;8.47;5.40;;;;;;;21.43;55.31;100267.88;5028929;28;20181;-63
2023/05/29 00:08:31;;;;;;;7.93;4.93;;;;;;;21.42;55.72;100260.50;5026451;28;20282;-63
2023/05/29 00:10:57;;;;;;;8.60;4.97;;;;;;;21.43;55.91;100262.13;5011442;28;21242;-63
2023/05/29 00:13:22;;;;;;;9.03;5.17;;;;;;;21.42;55.43;100263.38;5012186;28;20185;-64
2023/05/29 00:15:48;;;;;;;8.67;5.43;;;;;;;21.42;55.71;100256.81;5012481;28;20195;-63
2023/05/29 00:18:13;;;;;;;11.23;5.83;;;;;;;21.42;55.66;100263.38;5010912;28;20234;-63
2023/05/29 00:20:39;;;;;;;9.70;5.20;;;;;;;21.42;55.73;100257.63;5018071;28;20576;-63
2023/05/29 00:23:05;;;;;;;9.57;6.00;;;;;;;21.42;55.30;100265.44;5011142;28;20201;-63
2023/05/29 00:25:31;;;;;;;11.40;5.07;;;;;;;21.42;55.78;100259.69;5029107;28;20165;-63
2023/05/29 00:27:57;;;;;;;8.63;5.70;;;;;;;21.42;55.39;100256.81;5030940;28;20528;-63
2023/05/29 00:30:22;;;;;;;8.10;5.30;;;;;;;21.42;55.68;100259.69;5026906;28;20176;-64
2023/05/29 00:32:47;;;;;;;8.40;4.87;;;;;;;21.42;55.45;100259.69;5032060;28;20189;-64
2023/05/29 00:35:13;;;;;;;10.53;5.73;;;;;;;21.42;55.39;100256.81;5001997;28;20189;-64
2023/05/29 00:37:38;;;;;;;8.20;5.10;;;;;;;21.41;55.75;100258.00;5023077;28;20224;-63
2023/05/29 00:40:06;;;;;;;8.67;5.27;;;;;;;21.41;55.65;100252.28;5031478;28;20195;-64
2023/05/29 00:42:32;;;;;;;9.10;5.30;;;;;;;21.41;55.55;100255.13;5029092;28;20176;-63
2023/05/29 00:44:57;;;;;;;10.47;5.47;;;;;;;21.40;55.85;100254.34;5010027;28;20498;-64
2023/05/29 00:47:23;;;;;;;7.83;5.03;;;;;;;21.40;55.34;100251.47;5010380;28;20207;-64
2023/05/29 00:49:48;;;;;;;11.63;5.70;;;;;;;21.40;55.54;100253.50;5010456;28;20185;-64
2023/05/29 00:52:13;;;;;;;7.17;4.20;;;;;;;21.40;55.94;100245.72;5015712;28;20203;-63
2023/05/29 00:54:39;;;;;;;8.30;4.80;;;;;;;21.40;55.52;100244.88;5027330;28;20263;-63
2023/05/29 00:57:04;;;;;;;10.13;5.53;;;;;;;21.40;56.07;100254.34;4991759;28;20204;-64
2023/05/29 00:59:32;;;;;;;12.87;5.57;;;;;;;21.39;55.54;100244.09;5009363;28;20181;-63
2023/05/29 01:01:58;;;;;;;8.93;5.50;;;;;;;21.40;55.89;100250.63;5009722;28;20177;-64
2023/05/29 01:04:25;;;;;;;11.17;5.83;;;;;;;21.39;55.42;100252.69;5022069;28;20466;-63
2023/05/29 01:06:51;;;;;;;8.47;5.30;;;;;;;21.39;55.83;100246.13;5022468;28;20446;-64
2023/05/29 01:09:17;;;;;;;7.40;4.83;;;;;;;21.40;55.72;100253.50;5028462;28;20466;-64
2023/05/29 01:12:04;;;;;;;11.40;5.67;;;;;;;21.40;55.63;100251.47;5027346;28;20548;-63
2023/05/29 01:14:36;;;;;;;11.33;5.40;;;;;;;21.39;55.84;100254.72;5028311;28;20861;-63
2023/05/29 01:17:24;;;;;;;8.27;4.80;;;;;;;21.39;55.90;100251.84;5023645;28;20434;-64
2023/05/29 01:20:00;;;;;;;8.20;5.00;;;;;;;21.39;55.41;100243.25;5016474;28;20908;-63
2023/05/29 01:23:13;;;;;;;7.60;4.70;;;;;;;21.39;55.80;100246.94;5029236;28;20431;-63
2023/05/29 01:25:58;;;;;;;10.33;5.60;;;;;;;21.38;55.36;100251.03;5030039;28;20427;-64
2023/05/29 01:28:26;;;;;;;8.67;4.87;;;;;;;21.38;55.36;100256.78;5026578;28;20495;-63
2023/05/29 01:30:51;;;;;;;9.43;5.77;;;;;;;21.39;55.47;100251.84;5030545;28;20713;-64
2023/05/29 01:33:17;;;;;;;9.53;4.60;;;;;;;21.39;55.79;100258.44;5011770;28;20411;-63
2023/05/29 01:35:42;;;;;;;11.17;5.80;;;;;;;21.38;55.76;100261.72;5012132;28;20189;-63
2023/05/29 01:38:08;;;;;;;7.90;5.27;;;;;;;21.38;55.65;100265.38;5027899;28;20180;-64
2023/05/29 01:40:33;;;;;;;8.83;5.60;;;;;;;21.37;55.35;100269.50;5016806;28;20560;-64
2023/05/29 01:43:00;;;;;;;8.13;4.83;;;;;;;21.38;55.47;100261.72;5020863;28;20906;-63
2023/05/29 01:45:25;;;;;;;9.67;5.17;;;;;;;21.38;55.45;100258.84;5027671;28;20181;-64
2023/05/29 01:47:51;;;;;;;7.30;5.20;;;;;;;21.36;55.85;100256.34;5028547;28;20466;-63
2023/05/29 01:50:18;;;;;;;11.63;5.60;;;;;;;21.37;55.67;100258.00;5028115;28;20179;-64
2023/05/29 01:52:43;;;;;;;9.40;5.47;;;;;;;21.37;55.59;100257.19;5007691;28;20682;-63
2023/05/29 01:55:09;;;;;;;7.67;4.70;;;;;;;21.37;55.53;100251.44;5027939;28;20460;-63
2023/05/29 01:57:34;;;;;;;9.00;5.30;;;;;;;21.37;55.34;100254.31;5026998;28;20188;-64
2023/05/29 02:00:00;;;;;;;7.77;5.00;;;;;;;21.36;55.42;100253.50;4993972;28;20204;-64
2023/05/29 02:02:25;;;;;;;10.07;5.77;;;;;;;21.37;55.26;100254.31;5009020;28;20200;-63
2023/05/29 02:04:51;;;;;;;9.60;4.80;;;;;;;21.37;55.46;100258.00;4994244;28;20250;-64
2023/05/29 02:07:17;;;;;;;10.70;5.20;;;;;;;21.36;55.27;100253.50;5029645;28;20183;-63
2023/05/29 02:09:42;;;;;;;8.70;4.90;;;;;;;21.35;55.60;100251.84;5029194;28;20434;-64
2023/05/29 02:12:08;;;;;;;11.50;5.33;;;;;;;21.36;55.55;100255.53;5014808;28;20185;-63
2023/05/29 02:14:33;;;;;;;8.10;5.10;;;;;;;21.35;55.49;100257.59;5019253;28;20620;-64
2023/05/29 02:17:01;;;;;;;10.40;5.67;;;;;;;21.36;55.29;100258.41;5027697;28;20234;-64
2023/05/29 02:19:26;;;;;;;7.30;5.13;;;;;;;21.35;55.52;100256.75;5027898;28;20161;-64
2023/05/29 02:21:52;;;;;;;9.33;5.47;;;;;;;21.35;55.32;100259.63;5007242;28;20497;-64
2023/05/29 02:24:17;;;;;;;8.03;5.00;;;;;;;21.35;55.28;100256.75;5028583;28;20188;-64
2023/05/29 02:26:43;;;;;;;9.30;5.00;;;;;;;21.34;55.36;100258.81;5017538;28;20704;-64
2023/05/29 02:29:08;;;;;;;8.07;5.37;;;;;;;21.34;55.48;100255.94;5008721;28;20209;-64
2023/05/29 02:31:34;;;;;;;9.03;5.47;;;;;;;21.34;55.31;100255.13;5015775;28;20639;-64
2023/05/29 02:33:59;;;;;;;10.33;5.03;;;;;;;21.34;55.48;100255.13;5028437;28;20169;-63
2023/05/29 02:36:25;;;;;;;8.60;4.77;;;;;;;21.35;55.45;100253.88;5023846;28;20183;-63
2023/05/29 02:38:50;;;;;;;6.60;4.63;;;;;;;21.33;55.11;100260.03;5015810;28;20195;-63
2023/05/29 02:41:16;;;;;;;8.00;4.57;;;;;;;21.33;55.49;100256.34;5010372;28;21002;-63
2023/05/29 02:43:41;;;;;;;7.70;4.20;;;;;;;21.32;55.11;100258.38;5014832;28;20185;-63
2023/05/29 02:46:07;;;;;;;9.97;5.00;;;;;;;21.33;54.97;100257.16;5008687;28;20169;-62
2023/05/29 02:48:32;;;;;;;8.03;4.90;;;;;;;21.32;55.06;100255.50;5009319;28;20200;-63
2023/05/29 02:50:58;;;;;;;9.40;5.17;;;;;;;21.31;55.09;100253.88;5010252;28;20189;-63
2023/05/29 02:53:23;;;;;;;9.30;4.63;;;;;;;21.32;55.20;100257.56;5007502;28;20169;-64
2023/05/29 02:55:50;;;;;;;9.03;4.67;;;;;;;21.33;55.42;100262.91;5009295;28;20177;-63
2023/05/29 02:58:18;;;;;;;9.30;5.27;;;;;;;21.32;54.83;100267.00;5009779;28;20232;-63
2023/05/29 03:00:44;;;;;;;8.53;4.90;;;;;;;21.32;55.31;100263.31;4993716;28;20494;-62
2023/05/29 03:03:09;;;;;;;8.50;4.50;;;;;;;21.32;55.14;100266.19;5008690;28;20900;-62
2023/05/29 03:05:35;;;;;;;8.50;5.20;;;;;;;21.31;55.03;100265.34;5019478;28;20230;-63
2023/05/29 03:08:00;;;;;;;7.93;4.80;;;;;;;21.30;54.95;100263.72;5028472;28;20203;-62
2023/05/29 03:10:26;;;;;;;8.70;4.70;;;;;;;21.31;55.06;100262.47;5027409;28;20232;-63
2023/05/29 03:12:51;;;;;;;6.67;4.50;;;;;;;21.31;54.81;100265.34;5029511;28;20195;-63
2023/05/29 03:15:19;;;;;;;8.90;4.80;;;;;;;21.30;55.08;100266.59;5017711;28;20185;-63
2023/05/29 03:17:46;;;;;;;6.43;4.27;;;;;;;21.30;54.99;100260.84;5013501;28;20208;-63
2023/05/29 03:20:11;;;;;;;8.83;5.07;;;;;;;21.30;54.82;100260.84;5020723;28;20435;-62
2023/05/29 03:22:37;;;;;;;5.97;4.30;;;;;;;21.30;55.08;100257.13;5032718;28;20500;-63
2023/05/29 03:25:03;;;;;;;7.20;4.50;;;;;;;21.30;54.99;100262.88;5025829;28;20185;-63
2023/05/29 03:27:29;;;;;;;7.83;5.07;;;;;;;21.29;54.95;100264.94;5012964;28;20169;-63
2023/05/29 03:29:55;;;;;;;7.13;4.73;;;;;;;21.28;54.75;100263.28;5012751;28;20649;-64
2023/05/29 03:32:20;;;;;;;10.00;4.70;;;;;;;21.29;54.91;100269.84;5011891;28;20460;-63
2023/05/29 03:34:47;;;;;;;9.37;4.70;;;;;;;21.29;55.05;100267.81;5014164;28;20192;-63
2023/05/29 03:37:13;;;;;;;9.30;5.40;;;;;;;21.29;54.62;100272.72;5021003;28;20271;-63
2023/05/29 03:39:38;;;;;;;9.30;4.67;;;;;;;21.28;54.53;100260.41;5027615;28;20547;-63
2023/05/29 03:42:04;;;;;;;7.40;4.20;;;;;;;21.28;54.69;100262.47;5013166;28;20169;-63
2023/05/29 03:44:29;;;;;;;8.40;4.43;;;;;;;21.27;54.84;100263.69;5030039;28;20157;-63
2023/05/29 03:46:55;;;;;;;8.70;5.10;;;;;;;21.28;54.50;100271.09;5017942;28;20188;-63
2023/05/29 03:49:20;;;;;;;8.00;4.50;;;;;;;21.27;54.70;100270.25;5012298;28;20205;-63
2023/05/29 03:51:46;;;;;;;9.87;4.90;;;;;;;21.26;54.26;100262.84;5012179;28;20165;-63
2023/05/29 03:54:11;;;;;;;9.97;4.50;;;;;;;21.27;54.37;100261.63;5012388;28;20173;-63
2023/05/29 03:56:37;;;;;;;7.83;4.27;;;;;;;21.27;54.75;100255.88;5011811;28;20192;-63
2023/05/29 03:59:02;;;;;;;9.00;5.07;;;;;;;21.27;54.73;100264.50;5014100;28;20636;-63
2023/05/29 04:01:27;;;;;;;6.73;4.43;;;;;;;21.25;54.33;100261.22;5010671;28;20233;-63
2023/05/29 04:03:53;;;;;;;9.10;4.77;;;;;;;21.26;54.73;100260.00;5014720;28;20986;-63
2023/05/29 04:06:18;;;;;;;8.13;4.90;;;;;;;21.26;54.64;100268.59;5019563;28;20646;-63
2023/05/29 04:08:44;;;;;;;10.60;4.20;;;;;;;21.26;54.76;100276.38;5016379;28;20260;-63
2023/05/29 04:11:11;;;;;;;11.40;4.93;;;;;;;21.26;54.66;100276.38;5011650;28;20260;-63
2023/05/29 04:13:37;;;;;;;5.97;4.37;;;;;;;21.26;54.69;100277.22;5012282;28;20157;-63
2023/05/29 04:16:03;;;;;;;8.90;4.83;;;;;;;21.25;54.73;100284.19;5014687;28;20817;-63
2023/05/29 04:18:28;;;;;;;7.37;4.20;;;;;;;21.25;54.43;100298.53;5012242;28;20173;-63
2023/05/29 04:20:54;;;;;;;6.70;4.17;;;;;;;21.26;54.57;100299.34;5011791;28;20851;-63
2023/05/29 04:23:20;;;;;;;6.70;4.47;;;;;;;21.25;54.16;100292.81;5011691;28;20196;-63
2023/05/29 04:25:45;;;;;;;6.87;4.50;;;;;;;21.26;54.23;100302.22;5013431;28;20193;-63
2023/05/29 04:28:11;;;;;;;9.23;4.67;;;;;;;21.26;54.33;100299.34;5030676;28;20193;-63
2023/05/29 04:30:38;;;;;;;8.17;4.10;;;;;;;21.27;54.30;100304.69;5028943;28;20536;-63
2023/05/29 04:33:04;;;;;;;6.73;3.93;;;;;;;21.27;54.25;100301.84;5010453;28;20448;-62
2023/05/29 04:35:30;;;;;;;7.63;4.60;;;;;;;21.29;54.24;100312.94;5011431;28;20835;-63
2023/05/29 04:37:56;;;;;;;8.87;4.00;;;;;;;21.29;54.34;100313.75;5029147;28;20176;-63
2023/05/29 04:40:21;;;;;;;7.13;4.10;;;;;;;21.30;54.06;100324.03;5030934;28;20164;-63
2023/05/29 04:42:47;;;;;;;5.93;3.57;;;;;;;21.31;53.77;100316.22;5023175;28;20427;-63
2023/05/29 04:45:12;;;;;;;8.20;4.27;;;;;;;21.31;54.45;100316.22;5009953;28;20576;-64
2023/05/29 04:47:43;;;;;;;6.97;4.53;;;;;;;21.31;54.45;100322.78;5010811;28;20899;-63
2023/05/29 04:50:12;;;;;;;5.93;3.93;;;;;;;21.31;54.10;100322.78;4996590;28;20179;-63
2023/05/29 04:52:38;;;;;;;8.27;4.60;;;;;;;21.31;54.27;100331.41;5010715;28;20934;-63
2023/05/29 04:55:04;;;;;;;8.67;4.43;;;;;;;21.30;54.61;100329.75;5012823;28;20458;-64
2023/05/29 04:57:30;;;;;;;6.60;3.77;;;;;;;21.30;54.47;100338.38;4993529;28;20185;-63
2023/05/29 04:59:56;;;;;;;8.07;4.00;;;;;;;21.29;54.76;100344.50;5010903;28;20768;-63
2023/05/29 05:02:21;;;;;;;7.53;4.33;;;;;;;21.28;54.52;100346.56;5024284;28;20203;-63
2023/05/29 05:04:46;;;;;;;6.90;4.43;;;;;;;21.29;55.11;100347.38;5012143;28;20196;-63
2023/05/29 05:07:12;;;;;;;5.93;4.07;;;;;;;21.27;54.81;100350.66;5010583;28;20180;-63
2023/05/29 05:09:38;;;;;;;8.30;4.30;;;;;;;21.28;54.61;100352.28;5028668;28;20223;-63
2023/05/29 05:12:04;;;;;;;6.50;4.00;;;;;;;21.28;54.50;100346.56;5018474;28;20439;-63
2023/05/29 05:14:29;;;;;;;6.33;3.87;;;;;;;21.27;54.84;100349.84;5010599;28;20312;-63
2023/05/29 05:16:54;;;;;;;6.40;3.90;;;;;;;21.26;54.48;100349.00;5016927;28;20189;-63
2023/05/29 05:19:20;;;;;;;5.17;3.77;;;;;;;21.26;54.66;100349.00;5031330;28;20165;-64
2023/05/29 05:21:46;;;;;;;7.53;3.80;;;;;;;21.26;55.19;100359.66;5027818;28;20168;-63
2023/05/29 05:24:11;;;;;;;10.73;4.10;;;;;;;21.24;55.09;100354.34;5011701;28;20189;-64
2023/05/29 05:26:37;;;;;;;8.40;4.20;;;;;;;21.25;54.68;100364.59;5009118;28;20409;-64
2023/05/29 05:29:02;;;;;;;5.50;3.33;;;;;;;21.27;55.02;100361.34;5012032;28;20200;-64
2023/05/29 05:31:28;;;;;;;7.13;3.70;;;;;;;21.27;54.43;100356.41;5010283;28;20169;-64
2023/05/29 05:33:53;;;;;;;5.60;3.90;;;;;;;21.28;55.01;100358.03;5008373;28;20196;-64
2023/05/29 05:36:18;;;;;;;9.10;4.03;;;;;;;21.29;54.92;100359.72;5018501;28;20241;-64
2023/05/29 05:38:44;;;;;;;6.97;4.10;;;;;;;21.28;54.40;100358.03;5050376;28;20921;-64
2023/05/29 05:41:10;;;;;;;9.80;4.40;;;;;;;21.28;54.55;100362.97;5036299;28;20191;-64
2023/05/29 05:43:35;;;;;;;8.30;4.00;;;;;;;21.26;54.51;100366.25;5027776;28;20189;-65
2023/05/29 05:46:01;;;;;;;8.50;4.73;;;;;;;21.26;54.96;100357.63;5029860;28;20168;-64
2023/05/29 05:48:26;;;;;;;5.33;3.40;;;;;;;21.25;55.40;100358.84;5024944;28;20200;-64
2023/05/29 05:50:51;;;;;;;5.10;3.50;;;;;;;21.27;55.11;100361.34;5030990;28;20183;-64
2023/05/29 05:53:17;;;;;;;6.50;4.07;;;;;;;21.26;54.71;100365.41;5021131;28;20192;-65
2023/05/29 05:55:43;;;;;;;7.57;4.23;;;;;;;21.26;54.60;100371.97;5009799;28;20181;-64
2023/05/29 05:58:08;;;;;;;8.63;3.87;;;;;;;21.27;55.10;100372.81;5007973;28;20176;-64
2023/05/29 06:00:34;;;;;;;6.37;3.70;;;;;;;21.25;54.64;100376.09;5027032;28;20192;-64
2023/05/29 06:03:00;;;;;;;6.50;4.03;;;;;;;21.26;55.11;100377.72;5028862;28;20583;-63
2023/05/29 06:05:25;;;;;;;8.67;4.27;;;;;;;21.26;54.80;100383.47;5014140;28;20192;-65
2023/05/29 06:07:51;;;;;;;6.30;4.00;;;;;;;21.28;55.19;100381.00;5045271;28;20823;-64
2023/05/29 06:10:16;;;;;;;7.30;4.10;;;;;;;21.26;55.61;100389.22;5031593;28;20233;-64
2023/05/29 06:12:42;;;;;;;6.50;3.33;;;;;;;21.27;55.02;100396.59;5025106;28;20243;-64
2023/05/29 06:15:08;;;;;;;6.10;3.67;;;;;;;21.28;55.26;100403.97;5008631;28;20200;-64
2023/05/29 06:17:34;;;;;;;7.00;3.67;;;;;;;21.28;55.07;100398.25;5020355;28;20215;-62
2023/05/29 06:20:00;;;;;;;8.00;4.40;;;;;;;21.26;55.76;100394.94;5010311;28;20519;-61
2023/05/29 06:22:25;;;;;;;5.97;3.30;;;;;;;21.26;54.85;100406.44;5015044;28;20419;-64
2023/05/29 06:24:51;;;;;;;9.10;3.90;;;;;;;21.24;54.26;100406.03;5024253;28;20181;-62
2023/05/29 06:27:17;;;;;;;11.10;4.10;;;;;;;21.24;54.77;100408.91;5027527;28;20184;-63
2023/05/29 06:29:43;;;;;;;5.53;3.70;;;;;;;21.23;55.02;100410.09;5029120;28;20558;-62
2023/05/29 06:32:08;;;;;;;6.00;3.60;;;;;;;21.23;54.88;100409.28;5010595;28;20432;-61
2023/05/29 06:34:34;;;;;;;6.60;3.60;;;;;;;21.23;55.17;100407.22;5013280;28;20177;-61
2023/05/29 06:37:00;;;;;;;8.37;3.93;;;;;;;21.22;54.20;100411.31;5035901;28;20192;-63
2023/05/29 06:39:25;;;;;;;7.43;3.97;;;;;;;21.21;54.96;100406.81;5034257;28;20192;-62
2023/05/29 06:41:50;;;;;;;8.30;3.90;;;;;;;21.21;54.71;100403.94;5008411;28;20196;-64
2023/05/29 06:44:16;;;;;;;6.90;4.00;;;;;;;21.22;54.43;100407.66;5024927;28;20668;-63
2023/05/29 06:46:41;;;;;;;6.90;3.67;;;;;;;21.20;54.12;100408.03;5015681;28;20199;-64
2023/05/29 06:49:07;;;;;;;12.60;4.57;;;;;;;21.20;54.24;100407.19;5024998;28;20558;-64
2023/05/29 06:51:33;;;;;;;5.80;3.10;;;;;;;21.21;54.00;100400.22;5015450;28;20239;-64
2023/05/29 06:53:58;;;;;;;5.80;3.60;;;;;;;21.21;54.35;100414.59;5009542;28;20184;-62
2023/05/29 06:56:25;;;;;;;7.20;3.73;;;;;;;21.21;53.88;100409.69;5006196;28;20942;-64
2023/05/29 06:58:51;;;;;;;9.10;4.30;;;;;;;21.21;54.31;100408.84;5016527;28;20180;-63
2023/05/29 07:01:16;;;;;;;7.27;3.40;;;;;;;21.23;53.56;100412.97;5016431;28;20431;-63
2023/05/29 07:03:42;;;;;;;5.40;3.40;;;;;;;21.22;54.27;100417.06;5010193;28;20185;-63
2023/05/29 07:06:08;;;;;;;5.93;3.40;;;;;;;21.23;53.78;100423.66;5014051;28;20276;-63
2023/05/29 07:08:33;;;;;;;8.97;4.07;;;;;;;21.22;53.83;100428.56;5036725;28;20641;-63
2023/05/29 07:10:59;;;;;;;8.60;3.90;;;;;;;21.22;53.57;100424.88;5027089;28;20246;-63
2023/05/29 07:13:24;;;;;;;6.00;3.20;;;;;;;21.21;54.10;100426.91;5005644;28;20548;-64
2023/05/29 07:15:50;;;;;;;5.77;3.90;;;;;;;21.21;54.19;100429.78;5014061;28;20183;-63
2023/05/29 07:18:15;;;;;;;6.27;3.33;;;;;;;21.22;54.11;100427.75;5008222;28;20181;-64
2023/05/29 07:20:41;;;;;;;7.10;3.43;;;;;;;21.22;53.79;100427.75;5010467;28;20196;-64
2023/05/29 07:23:06;;;;;;;6.20;3.23;;;;;;;21.20;53.71;100425.25;5008237;28;20170;-64
2023/05/29 07:25:32;;;;;;;6.07;4.00;;;;;;;21.21;54.02;100426.06;5010049;28;20189;-65
2023/05/29 07:27:57;;;;;;;6.80;3.53;;;;;;;21.21;54.04;100428.94;5007689;28;20343;-63
2023/05/29 07:30:23;;;;;;;5.47;3.30;;;;;;;21.22;53.50;100427.75;5008108;28;20185;-63
2023/05/29 07:32:49;;;;;;;6.40;3.50;;;;;;;21.23;53.65;100420.78;5012463;28;20629;-63
2023/05/29 07:35:14;;;;;;;6.43;3.70;;;;;;;21.22;53.53;100422.81;5008021;28;20177;-62
2023/05/29 07:37:40;;;;;;;8.07;3.63;;;;;;;21.23;53.35;100429.38;5014809;28;20223;-63
2023/05/29 07:40:06;;;;;;;6.87;3.63;;;;;;;21.23;53.40;100429.38;5006479;28;20200;-64
2023/05/29 07:42:32;;;;;;;7.80;3.60;;;;;;;21.23;53.58;100424.44;4994006;28;20188;-62
2023/05/29 07:44:58;;;;;;;8.03;4.00;;;;;;;21.23;53.51;100427.31;5018651;28;20205;-62
2023/05/29 07:47:23;;;;;;;9.67;3.57;;;;;;;21.23;53.55;100430.19;5005982;28;20446;-63
2023/05/29 07:49:49;;;;;;;22.27;3.70;;;;;;;21.23;53.21;100435.94;5027721;28;20192;-64
2023/05/29 07:52:14;;;;;;;8.87;3.30;;;;;;;21.23;53.74;100430.19;5023720;28;20191;-63
2023/05/29 07:54:40;;;;;;;6.83;3.50;;;;;;;21.23;54.13;100433.06;5015878;28;20196;-64
2023/05/29 07:57:09;;;;;;;6.40;4.30;;;;;;;21.24;53.84;100431.88;5021247;28;20202;-64
2023/05/29 07:59:35;;;;;;;4.90;3.00;;;;;;;21.23;53.64;100427.31;5008360;28;20172;-63
2023/05/29 08:02:03;;;;;;;6.27;3.57;;;;;;;21.24;53.58;100431.03;5012134;28;20444;-63
2023/05/29 08:04:28;;;;;;;6.57;3.17;;;;;;;21.25;53.73;100426.94;5010898;28;20883;-64
2023/05/29 08:06:54;;;;;;;7.23;3.83;;;;;;;21.24;54.02;100433.91;5019421;28;20558;-64
2023/05/29 08:09:19;;;;;;;7.53;3.50;;;;;;;21.24;53.80;100437.63;5028677;28;20319;-63
2023/05/29 08:11:46;;;;;;;7.77;3.77;;;;;;;21.25;53.67;100424.06;5027425;28;20228;-63
2023/05/29 08:14:13;;;;;;;7.30;3.60;;;;;;;21.25;53.45;100430.63;5023670;28;20210;-64
2023/05/29 08:16:39;;;;;;;5.70;3.67;;;;;;;21.26;53.82;100417.09;5025426;28;20485;-63
2023/05/29 08:19:05;;;;;;;7.00;3.37;;;;;;;21.26;53.61;100429.41;5009878;28;20416;-64
2023/05/29 08:21:31;;;;;;;6.67;3.50;;;;;;;21.27;53.78;100425.31;5024792;28;20192;-63
2023/05/29 08:23:57;;;;;;;6.50;3.53;;;;;;;21.28;53.47;100424.09;5028888;28;20180;-64
2023/05/29 08:26:22;;;;;;;5.30;3.40;;;;;;;21.30;53.63;100424.53;5030344;28;20438;-62
2023/05/29 08:28:48;;;;;;;9.07;3.70;;;;;;;21.29;53.54;100425.75;5026714;28;20288;-63
2023/05/29 08:31:13;;;;;;;6.10;3.67;;;;;;;21.28;53.95;100424.09;5021722;28;20195;-62
2023/05/29 08:33:39;;;;;;;5.20;3.00;;;;;;;21.29;53.91;100417.16;5022755;28;20188;-62
2023/05/29 08:36:05;;;;;;;5.57;3.40;;;;;;;21.29;53.53;100422.88;5021904;28;20730;-62
2023/05/29 08:38:30;;;;;;;8.37;3.47;;;;;;;21.30;54.09;100429.44;5029567;28;20424;-63
2023/05/29 08:40:57;;;;;;;9.00;3.30;;;;;;;21.30;53.40;100417.94;5012240;28;20193;-63
2023/05/29 08:43:22;;;;;;;6.97;3.30;;;;;;;21.30;53.70;100415.91;5011239;28;20633;-63
2023/05/29 08:45:53;;;;;;;9.13;4.63;;;;;;;21.31;53.56;100417.56;5009802;28;20424;-62
2023/05/29 08:48:20;;;;;;;8.97;4.00;;;;;;;21.31;53.96;100420.44;5010242;28;20620;-63
2023/05/29 08:50:48;;;;;;;5.40;3.37;;;;;;;21.31;53.88;100413.84;5010961;28;20502;-63
2023/05/29 08:53:16;;;;;;;9.10;4.30;;;;;;;21.32;53.41;100424.16;4992378;28;20427;-63
2023/05/29 08:55:42;;;;;;;7.00;3.43;;;;;;;21.32;53.82;100404.03;5016008;28;20455;-63
2023/05/29 08:58:08;;;;;;;7.33;3.50;;;;;;;21.32;53.78;100399.09;5009417;28;20413;-63
2023/05/29 09:00:33;;;;;;;9.87;3.87;;;;;;;21.33;53.74;100415.09;5010387;28;20267;-63
2023/05/29 09:03:00;;;;;;;9.07;4.20;;;;;;;21.32;53.75;100399.09;5023453;28;20519;-64
2023/05/29 09:05:29;;;;;;;6.63;3.83;;;;;;;21.34;53.58;100422.53;5025549;28;20188;-62
2023/05/29 09:07:55;;;;;;;5.53;3.60;;;;;;;21.33;53.89;100417.97;5015740;28;20515;-64
2023/05/29 09:10:22;;;;;;;11.87;3.50;;;;;;;21.34;53.45;100418.81;5042599;28;20556;-63
2023/05/29 09:12:49;;;;;;;7.03;3.60;;;;;;;21.35;53.96;100426.19;5032724;28;20436;-63
2023/05/29 09:15:20;;;;;;;6.90;3.70;;;;;;;21.35;53.98;100421.28;5010419;28;20436;-63
2023/05/29 09:17:52;;;;;;;7.33;3.87;;;;;;;21.36;53.75;100419.22;5008043;28;20741;-63
2023/05/29 09:20:18;;;;;;;8.33;3.20;;;;;;;21.39;53.93;100427.91;5019395;28;21353;-63
2023/05/29 09:23:04;;;;;;;11.17;4.53;;;;;;;21.42;55.68;100420.53;5021314;28;20459;-63
2023/05/29 09:25:31;;;;;;;9.23;3.93;;;;;;;21.45;55.77;100426.31;5022902;28;20986;-63
2023/05/29 09:28:00;;;;;;;8.07;4.10;;;;;;;21.50;55.66;100417.31;5022899;28;20843;-64
2023/05/29 09:30:42;;;;;;;12.90;4.97;;;;;;;21.70;56.07;100421.59;5022378;28;20501;-64
2023/05/29 09:33:12;;;;;;;26.03;5.47;;;;;;;21.83;57.13;100431.53;5022682;28;20464;-65
2023/05/29 09:35:39;;;;;;;9.57;4.87;;;;;;;21.95;58.04;100428.34;5015016;28;20431;-63
2023/05/29 09:38:05;;;;;;;10.40;5.23;;;;;;;22.15;56.96;100423.94;5014974;28;20474;-63
2023/05/29 09:40:35;;;;;;;14.20;5.10;;;;;;;22.01;57.39;100423.03;5015078;28;20521;-62
2023/05/29 09:43:12;;;;;;;13.17;5.17;;;;;;;21.92;58.06;100416.84;5016402;28;20275;-61
2023/05/29 09:45:41;;;;;;;11.50;5.10;;;;;;;21.87;57.51;100431.59;5007590;28;20430;-62
2023/05/29 09:48:15;;;;;;;8.33;4.00;;;;;;;21.87;57.02;100429.53;5020267;28;20934;-63
2023/05/29 09:50:47;;;;;;;12.10;4.80;;;;;;;21.91;56.93;100424.63;5012443;28;20433;-63
2023/05/29 09:53:21;;;;;;;16.00;5.13;;;;;;;21.92;56.46;100423.38;5012503;28;20449;-63
2023/05/29 09:55:47;;;;;;;15.47;4.47;;;;;;;21.91;54.99;100421.75;5015720;28;20893;-62
2023/05/29 09:58:19;;;;;;;12.00;4.10;;;;;;;21.89;54.53;100409.84;5015091;28;20545;-63
2023/05/29 10:00:45;;;;;;;8.07;4.60;;;;;;;21.86;54.93;100409.78;5020830;28;20443;-64
2023/05/29 10:03:12;;;;;;;10.90;4.80;;;;;;;21.88;54.64;100410.22;5013727;28;20514;-61
2023/05/29 10:05:39;;;;;;;11.37;4.40;;;;;;;21.88;54.66;100408.16;5018145;28;20446;-64
2023/05/29 10:08:05;;;;;;;10.30;4.73;;;;;;;21.90;54.69;100402.84;5021697;28;20471;-62
2023/05/29 10:10:30;;;;;;;12.10;4.00;;;;;;;21.90;55.21;100397.09;5019976;28;20487;-63
2023/05/29 10:12:56;;;;;;;12.50;4.90;;;;;;;21.90;55.20;100396.28;4996621;28;20486;-62
2023/05/29 10:15:23;;;;;;;9.70;4.40;;;;;;;21.89;55.77;100388.88;5015178;28;20256;-62
2023/05/29 10:17:59;;;;;;;9.83;4.67;;;;;;;21.91;56.18;100380.66;4983140;28;20183;-62
2023/05/29 10:20:25;;;;;;;10.83;4.53;;;;;;;21.94;56.18;100389.34;5000114;28;20431;-61
2023/05/29 10:22:51;;;;;;;10.80;4.43;;;;;;;21.96;55.92;100384.00;4992220;28;20444;-62
2023/05/29 10:25:19;;;;;;;9.43;5.20;;;;;;;21.96;55.85;100380.28;5018245;28;20184;-60
2023/05/29 10:27:44;;;;;;;12.63;5.20;;;;;;;22.01;55.91;100377.88;5010847;28;20436;-61
2023/05/29 10:30:22;;;;;;;9.90;5.00;;;;;;;22.02;56.32;100373.75;5013442;28;20946;-60
2023/05/29 10:33:36;;;;;;;11.80;4.93;;;;;;;22.01;56.24;100375.00;5018908;28;20177;-61
2023/05/29 10:36:12;;;;;;;9.00;4.50;;;;;;;21.97;56.01;100379.09;5013340;28;20462;-62
2023/05/29 10:38:40;;;;;;;9.70;4.53;;;;;;;21.97;55.19;100379.88;5006956;28;20523;-61
2023/05/29 10:41:26;;;;;;;8.77;4.40;;;;;;;21.93;55.35;100381.91;5014514;28;20451;-62
2023/05/29 10:43:55;;;;;;;9.53;4.63;;;;;;;22.00;55.86;100379.09;5004702;28;20447;-61
2023/05/29 10:46:20;;;;;;;9.87;4.17;;;;;;;22.01;55.75;100374.16;5018317;28;20431;-61
2023/05/29 10:48:49;;;;;;;8.43;4.77;;;;;;;22.09;56.05;100373.81;5008975;28;20459;-61
2023/05/29 10:51:25;;;;;;;10.73;5.17;;;;;;;22.14;55.66;100379.19;5009359;28;20185;-61
2023/05/29 10:53:51;;;;;;;9.53;4.97;;;;;;;22.13;55.61;100383.25;5006960;28;20442;-61
2023/05/29 10:56:26;;;;;;;11.37;4.97;;;;;;;22.20;54.55;100377.56;5011663;28;20542;-62
2023/05/29 10:58:55;;;;;;;11.10;5.13;;;;;;;22.20;53.57;100368.94;5013871;28;20520;-62
2023/05/29 11:01:22;;;;;;;8.13;4.80;;;;;;;22.13;53.90;100377.50;5015959;28;20519;-62
2023/05/29 11:03:48;;;;;;;11.47;5.20;;;;;;;22.13;54.07;100366.00;5009099;28;20431;-61
2023/05/29 11:06:20;;;;;;;8.97;4.37;;;;;;;22.09;53.90;100370.94;5017013;28;20449;-62
2023/05/29 11:08:56;;;;;;;9.00;4.40;;;;;;;22.07;54.03;100363.94;5014825;28;20787;-62
2023/05/29 11:11:27;;;;;;;9.43;5.63;;;;;;;22.07;54.45;100369.69;5010919;28;20481;-61
2023/05/29 11:13:54;;;;;;;8.73;4.93;;;;;;;22.14;53.96;100370.53;5010854;28;20444;-62
2023/05/29 11:16:19;;;;;;;9.80;5.07;;;;;;;22.12;54.62;100370.09;5021129;28;20952;-61
2023/05/29 11:18:46;;;;;;;13.47;4.53;;;;;;;22.10;54.44;100369.69;5012815;28;20423;-61
2023/05/29 11:21:24;;;;;;;9.53;4.87;;;;;;;22.10;54.40;100366.81;5011051;28;20191;-61
2023/05/29 11:23:51;;;;;;;9.27;4.10;;;;;;;22.09;54.73;100362.31;5020816;28;20427;-61